Date,TemperatureHighF,TemperatureAvgF,TemperatureLowF,DewpointHighF,DewpointAvgF,DewpointLowF,HumidityHigh,HumidityAvg,HumidityLow,PressureMaxIn,PressureMinIn,WindSpeedMaxMPH,WindSpeedAvgMPH,GustSpeedMaxMPH,PrecipitationSumIn
2012-1-3,28,28,28,10,10,10,45,45,45,30.44,30.44,19,19,30,0.00
2012-1-4,49,43,28,33,29,10,70,58,45,30.44,30.05,19,7,30,0.00
2012-1-5,64,47,32,35,31,27,89,56,30,30.15,29.85,6,2,14,0.00
2012-1-6,68,51,43,36,32,26,63,50,26,29.91,29.71,10,2,17,0.00
2012-1-7,50,44,38,31,28,23,72,55,36,30.24,29.91,12,4,16,0.00
2012-1-8,43,39,33,35,32,29,87,75,68,30.33,30.23,5,1,7,0.00
2012-1-9,50,39,30,33,30,27,94,73,44,30.27,30.10,5,2,10,0.00
2012-1-10,57,41,30,34,30,27,94,69,34,30.12,29.74,3,1,7,0.00
2012-1-11,55,44,35,37,33,28,87,65,39,29.75,29.52,22,5,31,0.00
2012-1-12,35,21,16,31,16,8,92,82,68,29.93,29.68,22,13,34,0.00
2012-1-13,22,18,14,14,12,10,88,75,64,30.18,29.93,14,6,21,0.00
2012-1-14,34,25,14,25,19,11,93,79,54,30.32,30.02,9,3,15,0.00
2012-1-15,24,22,21,22,21,20,94,94,93,30.36,30.31,1,1,3,0.00
2012-1-16,68,62,45,56,52,40,84,72,56,29.85,29.63,11,4,24,0.00
2012-1-17,61,36,23,56,30,15,97,80,68,30.38,29.57,21,12,41,0.62
2012-1-18,33,25,16,23,17,9,85,69,51,30.40,29.98,11,2,18,0.00
2012-1-19,34,27,17,27,19,9,82,72,60,30.18,29.91,11,4,20,0.00
2012-1-20,28,23,16,25,16,8,91,77,68,30.19,29.89,9,5,15,0.00
2012-1-21,31,26,22,27,22,18,94,86,77,30.26,30.02,12,5,18,0.00
2012-1-22,46,37,28,46,36,27,98,96,93,30.03,29.41,5,3,12,0.00
2012-1-23,54,40,32,51,33,26,98,75,65,30.08,29.40,17,8,41,0.01
2012-1-24,45,34,28,31,27,24,88,77,53,30.33,30.08,5,2,9,0.00
2012-1-25,34,33,31,33,31,28,97,93,86,30.33,29.97,6,3,11,0.63
2012-1-26,40,36,33,38,35,32,97,95,89,29.96,29.71,10,3,15,0.36
2012-1-27,39,37,32,35,33,30,97,85,76,30.05,29.82,16,3,23,0.13
2012-1-28,43,36,30,34,25,16,96,68,33,30.32,30.02,16,6,23,0.04
2012-1-29,47,39,32,27,21,17,80,50,32,30.27,30.18,14,4,20,0.00
2012-1-30,66,48,33,42,33,24,78,58,32,30.19,29.93,8,2,18,0.00
2012-1-31,64,56,44,53,44,34,81,65,52,29.99,29.86,7,3,16,0.00
2012-2-1,58,50,40,51,41,35,91,73,44,30.17,29.99,10,2,15,0.00
2012-2-2,64,47,31,42,36,30,97,71,31,30.32,30.18,3,1,7,0.00
2012-2-3,55,47,39,44,39,34,95,75,51,30.32,30.11,11,4,18,1.19
2012-2-4,47,45,42,46,44,40,97,95,92,30.14,30.01,12,5,18,0.23
2012-2-5,49,42,36,41,36,32,97,82,52,30.31,30.13,8,4,14,0.05
2012-2-6,46,36,30,36,32,29,97,88,66,30.31,30.18,8,3,15,0.00
2012-2-7,48,36,30,37,32,30,97,88,62,30.36,30.21,10,2,16,0.01
2012-2-8,34,33,32,33,29,27,96,85,74,30.46,30.36,8,4,12,0.07
2012-2-9,38,35,31,32,27,22,88,72,56,30.41,30.16,6,1,11,0.01
2012-2-10,40,33,23,38,28,16,93,83,70,30.32,29.98,21,8,31,0.05
2012-2-11,29,23,17,17,9,3,86,56,34,30.60,30.32,19,13,28,0.00
2012-2-12,37,26,16,19,8,2,73,50,25,30.60,30.30,14,5,20,0.00
2012-2-13,33,30,27,31,27,16,97,86,53,30.30,29.87,6,1,17,0.01
2012-2-14,39,35,31,35,32,30,97,91,80,30.03,29.84,5,1,10,0.11
2012-2-15,45,42,32,44,40,31,98,95,90,30.05,29.88,4,1,7,0.14
2012-2-16,49,42,33,44,38,31,98,86,61,30.24,29.94,15,4,20,0.17
2012-2-17,58,42,30,39,32,27,97,70,34,30.24,30.07,6,1,12,0.00
2012-2-18,46,40,34,34,29,26,82,66,52,30.22,30.09,9,5,16,0.00
2012-2-19,34,33,33,28,27,26,79,78,76,30.14,30.12,6,4,11,0.00
2012-2-20,50,45,36,34,29,25,75,54,43,30.24,29.79,6,4,13,0.01
2012-2-21,53,46,38,41,35,29,89,68,42,29.87,29.66,11,4,23,0.01
2012-2-22,62,48,35,35,31,26,78,54,33,29.79,29.44,13,4,22,0.01
2012-2-23,66,52,42,47,41,34,88,68,49,29.50,29.22,19,5,28,0.01
2012-2-24,48,40,36,36,27,21,84,62,43,30.15,29.50,23,13,39,0.01
2012-2-25,42,33,28,26,18,14,73,55,35,30.35,30.15,20,7,32,0.00
2012-2-26,66,42,26,29,24,19,79,53,23,30.26,30.00,11,4,25,0.00
2012-2-27,48,43,39,26,22,17,58,43,31,30.46,30.41,14,5,21,0.00
2012-2-28,61,47,32,56,34,23,85,61,44,30.43,29.65,6,3,16,0.00
2012-2-29,66,58,46,60,38,20,88,50,18,29.84,29.53,20,10,46,0.07
2012-3-1,64,50,37,36,33,30,77,55,30,29.91,29.56,11,3,19,0.00
2012-3-2,52,45,36,49,38,32,95,78,56,29.83,29.33,23,8,41,0.36
2012-3-3,43,38,34,33,26,22,83,62,45,29.95,29.82,17,8,29,0.00
2012-3-4,34,34,33,25,24,24,73,69,67,29.92,29.92,2,1,5,0.00
2012-3-5,50,42,31,29,26,22,76,55,34,30.44,30.20,6,3,11,0.00
2012-3-6,75,57,37,41,33,26,68,43,19,30.20,29.91,14,4,35,0.00
2012-3-7,70,64,56,54,48,38,63,56,46,30.01,29.89,12,5,27,0.00
2012-3-8,69,43,38,55,31,25,86,63,48,30.43,29.90,17,9,25,0.13
2012-3-9,54,45,38,27,20,7,59,40,18,30.56,30.42,11,5,15,0.00
2012-3-10,64,48,34,30,26,21,71,46,22,30.49,30.24,4,2,11,0.00
2012-3-11,62,50,40,54,41,30,94,74,43,30.26,29.95,5,3,12,0.18
2012-3-12,81,67,53,58,51,44,97,64,27,29.94,29.75,10,4,25,0.01
2012-3-13,82,65,49,56,51,43,94,64,26,30.08,29.94,4,1,9,0.00
2012-3-14,85,71,57,64,59,54,94,70,42,30.04,29.90,10,3,23,0.00
2012-3-15,82,70,61,65,59,54,88,69,51,30.08,29.93,11,3,22,0.39
2012-3-16,77,64,56,65,59,54,97,85,61,30.11,29.97,6,1,15,0.47
2012-3-17,78,64,57,69,60,56,98,91,67,30.05,29.94,7,2,13,0.00
2012-3-18,80,67,58,68,61,56,94,81,48,30.04,29.90,6,2,15,0.00
2012-3-19,80,70,63,67,62,58,93,76,55,29.95,29.75,7,3,13,0.00
2012-3-20,82,71,63,62,58,52,83,64,40,29.92,29.82,7,3,17,0.00
2012-3-21,80,71,63,61,58,55,81,64,43,29.98,29.87,7,3,16,0.00
2012-3-22,72,59,54,61,56,52,97,88,64,30.03,29.89,9,2,18,0.17
2012-3-23,67,56,52,57,52,48,98,87,55,29.94,29.75,9,2,18,0.18
2012-3-24,73,62,53,58,54,50,93,77,47,29.93,29.79,12,5,18,0.01
2012-3-25,75,66,59,60,57,55,91,75,52,30.05,29.93,7,3,12,0.00
2012-3-26,71,62,56,59,52,44,97,72,54,30.18,30.02,10,4,16,0.00
2012-3-27,84,66,51,57,48,43,77,55,31,30.12,29.85,6,2,15,0.00
2012-3-28,81,70,64,59,49,35,80,51,20,30.00,29.89,6,1,12,0.00
2012-3-29,69,63,57,55,49,41,78,63,44,30.03,29.80,11,3,21,0.05
2012-3-30,79,66,55,62,56,50,88,71,48,29.82,29.69,12,4,22,0.00
2012-3-31,61,54,49,54,49,46,89,84,77,29.91,29.81,8,4,16,0.00
2012-4-2,72,72,72,66,66,66,81,80,80,29.72,29.72,2,2,4,0.00
2012-4-4,67,64,56,60,55,38,85,72,42,29.75,29.70,10,4,20,0.02
2012-4-5,62,53,46,50,44,33,95,74,44,30.06,29.72,11,5,21,0.74
2012-4-6,63,50,39,43,37,33,83,63,41,30.24,30.06,10,3,21,0.00
2012-4-7,69,57,42,51,44,37,94,65,33,30.25,30.15,12,3,20,0.00
2012-4-8,68,58,49,51,38,24,86,53,21,30.36,30.15,10,4,17,0.00
2012-4-9,69,59,48,46,35,22,90,45,20,30.17,30.02,15,5,24,0.00
2012-4-10,60,53,44,38,28,21,68,39,28,30.22,30.05,13,6,23,0.00
2012-4-11,58,48,40,41,28,22,87,47,29,30.32,30.15,7,3,15,0.00
2012-4-12,66,52,36,41,35,28,96,57,28,30.29,30.08,5,1,15,0.00
2012-4-13,56,52,48,50,45,37,95,79,49,30.16,30.00,4,1,12,0.91
2012-4-14,74,62,52,69,59,50,98,92,69,30.05,29.73,12,1,27,1.32
2012-4-15,76,69,58,66,60,55,95,75,64,29.74,29.56,10,3,28,0.93
2012-4-16,66,59,53,55,48,42,93,68,45,30.23,29.64,18,6,36,0.01
2012-4-17,72,60,49,53,47,39,97,67,32,30.35,30.22,6,1,9,0.00
2012-4-18,76,63,50,53,48,42,94,63,33,30.23,29.96,5,1,15,0.00
2012-4-19,80,66,52,52,49,42,86,56,31,30.00,29.71,5,1,14,0.00
2012-4-20,65,54,49,56,47,44,92,78,55,29.94,29.66,15,8,22,0.09
2012-4-21,60,53,44,45,40,34,85,64,41,30.06,29.94,9,5,17,0.09
2012-4-22,57,51,46,47,42,35,96,73,48,30.12,29.88,11,4,20,0.15
2012-4-23,62,53,42,42,38,34,83,58,38,30.12,29.93,17,7,28,0.00
2012-4-24,78,62,48,58,47,40,89,61,39,29.92,29.59,6,3,16,0.00
2012-4-25,89,72,55,66,59,53,94,68,36,29.63,29.49,6,1,13,0.00
2012-4-26,78,70,59,64,56,45,92,62,42,30.02,29.58,10,5,17,0.00
2012-4-27,60,54,46,46,34,24,63,47,36,30.15,29.89,10,4,21,0.00
2012-4-28,75,62,54,63,55,41,94,78,54,30.01,29.82,8,2,15,0.87
2012-4-29,60,55,50,58,53,48,97,94,91,30.09,29.95,7,2,17,0.47
2012-4-30,71,64,59,64,62,58,98,92,77,29.97,29.91,14,2,28,0.21
2012-5-1,84,71,59,70,64,58,98,81,54,29.95,29.75,8,2,17,0.40
2012-5-2,91,79,66,68,65,62,89,66,40,29.90,29.76,6,2,17,0.00
2012-5-3,86,77,69,72,68,64,87,73,56,29.97,29.81,4,1,14,0.00
2012-5-4,82,72,64,72,67,62,96,85,68,30.03,29.80,17,1,23,0.14
2012-5-5,91,79,68,75,71,65,94,78,53,29.88,29.79,5,1,9,0.00
2012-5-6,92,80,71,74,70,66,97,75,45,29.86,29.74,9,1,15,0.00
2012-5-7,75,68,64,66,64,59,96,88,69,29.91,29.76,12,4,23,0.36
2012-5-8,74,66,59,60,49,40,83,57,32,29.98,29.89,14,6,21,0.00
2012-5-9,69,62,56,55,48,44,89,62,44,29.99,29.90,11,5,21,0.00
2012-5-10,74,61,53,55,51,45,95,72,37,30.00,29.92,5,1,11,0.00
2012-5-11,77,67,55,60,51,44,79,59,37,30.11,29.99,3,1,9,0.00
2012-5-12,78,68,58,59,54,46,93,63,34,30.19,30.09,5,1,9,0.00
2012-5-13,77,67,56,57,50,41,86,58,33,30.18,30.05,7,4,13,0.00
2012-5-14,80,68,56,57,43,36,80,44,21,30.11,29.99,6,2,13,0.00
2012-5-15,82,69,51,60,52,42,95,60,27,30.04,29.91,6,2,14,0.00
2012-5-16,78,69,62,57,51,40,82,54,28,30.03,29.92,8,3,16,0.00
2012-5-17,81,66,52,55,42,34,68,44,25,30.08,29.94,6,1,13,0.00
2012-5-18,89,74,58,64,54,48,73,54,28,30.01,29.86,3,1,12,0.00
2012-5-19,90,77,65,67,62,58,83,60,37,29.98,29.88,4,1,14,0.00
2012-5-20,89,76,66,67,64,60,96,69,42,30.05,29.93,14,2,27,0.17
2012-5-21,73,66,59,63,52,47,88,63,40,30.14,30.04,8,5,16,0.00
2012-5-22,77,66,55,57,52,46,95,64,36,30.07,29.86,6,2,13,0.00
2012-5-23,86,72,56,56,53,49,83,54,31,29.88,29.67,4,1,14,0.00
2012-5-24,92,79,62,64,57,49,67,49,29,29.71,29.53,6,2,22,0.00
2012-5-25,91,81,72,72,68,62,85,65,51,29.95,29.71,6,2,13,0.00
2012-5-26,95,83,71,74,69,64,86,65,48,30.00,29.88,4,1,14,0.00
2012-5-27,94,82,71,68,65,62,79,58,36,29.97,29.80,5,1,12,0.00
2012-5-28,92,83,73,74,66,60,86,57,37,29.84,29.71,9,2,23,0.00
2012-5-29,88,78,70,72,59,52,90,54,31,29.88,29.73,15,2,29,0.53
2012-5-30,80,73,65,62,52,47,70,50,36,29.95,29.80,8,3,14,0.00
2012-5-31,67,60,54,58,52,48,94,78,53,29.87,29.74,9,4,17,0.03
2012-6-1,67,56,49,51,47,42,90,74,42,29.94,29.85,13,8,18,0.01
2012-6-2,79,66,56,61,52,48,83,63,38,29.92,29.76,12,3,17,0.00
2012-6-3,85,72,55,69,60,50,96,69,39,29.89,29.78,5,1,9,0.00
2012-6-4,82,72,64,72,65,59,96,79,62,29.85,29.70,10,2,18,0.12
2012-6-5,82,72,62,59,54,50,86,57,34,29.93,29.84,8,3,20,0.00
2012-6-6,78,70,59,60,51,46,82,53,33,30.04,29.92,6,2,13,0.00
2012-6-7,84,72,59,62,54,47,91,60,30,30.11,30.01,6,1,11,0.00
2012-6-8,88,75,60,64,57,47,93,59,26,30.08,29.90,5,1,11,0.00
2012-6-9,91,78,63,66,60,56,85,57,38,29.94,29.77,5,1,12,0.00
2012-6-10,88,79,67,68,64,58,79,62,49,29.88,29.78,5,1,14,0.00
2012-6-11,76,73,68,71,68,65,94,86,79,29.91,29.80,10,2,14,0.27
2012-6-12,79,73,67,67,56,46,83,57,35,30.10,29.89,12,4,19,0.27
2012-6-13,81,72,59,58,54,50,76,55,36,30.13,29.99,6,2,12,0.00
2012-6-14,89,76,61,63,58,54,86,57,35,30.05,29.88,3,1,9,0.00
2012-6-15,93,79,64,65,61,55,82,58,29,30.01,29.90,4,1,14,0.00
2012-6-16,95,82,70,72,67,61,95,61,39,30.03,29.83,21,2,35,0.64
2012-6-17,90,78,69,75,70,67,96,78,55,29.96,29.77,5,2,9,0.01
2012-6-18,94,83,74,71,68,63,81,61,42,29.83,29.72,8,3,20,0.00
2012-6-19,93,82,75,71,68,63,78,64,45,29.93,29.83,5,2,17,0.00
2012-6-20,95,83,70,70,65,60,74,55,35,30.00,29.86,6,2,14,0.00
2012-6-21,83,79,71,69,65,60,90,63,46,29.97,29.88,13,4,25,0.00
2012-6-22,85,76,68,68,60,55,92,60,37,30.02,29.93,7,2,13,0.00
2012-6-23,87,77,66,66,61,55,91,61,39,30.01,29.89,4,1,10,0.00
2012-6-24,96,82,69,71,65,59,77,57,38,29.96,29.82,6,1,10,0.00
2012-6-25,87,80,69,70,62,48,79,57,31,29.94,29.82,9,4,22,0.00
2012-6-26,86,73,59,58,54,49,78,53,31,29.99,29.86,6,2,12,0.00
2012-6-27,100,81,63,68,57,52,75,48,27,29.97,29.80,4,1,13,0.00
2012-6-28,107,89,72,75,62,57,80,45,21,29.89,29.80,7,2,14,0.00
2012-6-29,105,88,69,77,68,59,83,55,28,29.89,29.72,8,2,12,0.00
2012-6-30,102,87,76,78,71,62,85,62,28,29.84,29.74,5,1,11,0.00
2012-7-1,98,86,75,77,72,67,92,65,37,29.95,29.80,10,2,15,0.00
2012-7-2,98,83,74,74,70,62,85,66,38,29.95,29.87,10,1,24,0.00
2012-7-3,100,85,69,75,70,66,95,65,37,29.94,29.78,6,2,15,0.00
2012-7-4,104,89,76,77,68,56,88,56,23,29.92,29.81,6,2,12,0.00
2012-7-5,105,94,82,78,70,63,83,50,27,29.94,29.85,6,2,11,0.00
2012-7-6,105,92,79,80,73,65,87,60,29,29.94,29.85,4,1,9,0.00
2012-7-7,105,91,78,79,72,62,91,58,26,29.94,29.83,7,2,18,0.01
2012-7-8,94,84,77,76,74,70,87,72,53,29.97,29.86,9,3,17,0.00
2012-7-9,90,81,72,73,65,57,88,60,39,30.00,29.91,7,3,14,0.00
2012-7-10,94,84,73,69,62,58,84,51,31,30.00,29.91,6,2,13,0.00
2012-7-11,91,80,70,65,61,55,62,52,35,30.04,29.95,6,3,14,0.00
2012-7-12,94,83,73,68,65,60,81,56,34,30.00,29.91,7,2,13,0.00
2012-7-13,94,82,71,71,68,65,86,65,40,30.01,29.91,17,2,26,0.00
2012-7-14,91,80,72,73,70,67,91,72,49,30.03,29.92,4,1,9,0.00
2012-7-15,96,84,71,72,69,65,91,65,37,30.07,29.93,4,1,10,0.00
2012-7-16,98,86,75,73,71,69,87,63,39,29.99,29.81,4,1,11,0.00
2012-7-17,101,89,79,74,71,66,79,58,33,29.89,29.76,6,2,12,0.00
2012-7-18,103,90,77,75,71,66,89,56,31,29.91,29.76,7,2,14,0.00
2012-7-19,101,89,82,73,70,66,71,55,33,29.91,29.77,10,4,19,0.00
2012-7-20,84,79,73,73,69,67,86,71,58,30.00,29.88,8,4,16,0.00
2012-7-21,93,81,69,69,65,60,91,61,35,30.07,29.96,5,1,12,0.00
2012-7-22,98,86,75,70,64,51,75,51,23,30.07,29.95,5,1,10,0.00
2012-7-23,105,90,77,75,69,63,76,52,27,30.03,29.88,6,2,15,0.00
2012-7-24,104,92,79,73,70,65,75,50,30,29.95,29.77,8,2,15,0.00
2012-7-25,104,93,82,73,68,63,67,46,28,29.83,29.63,8,3,22,0.00
2012-7-26,91,86,79,73,70,67,73,60,49,29.81,29.64,15,5,24,0.00
2012-7-27,92,83,72,71,66,60,89,59,36,29.96,29.80,12,5,20,0.00
2012-7-28,90,80,70,65,63,57,82,56,35,30.09,29.96,8,2,16,0.00
2012-7-29,87,76,70,72,68,63,95,78,59,30.08,29.88,5,1,12,0.13
2012-7-30,83,78,70,74,71,68,94,81,67,29.89,29.83,7,2,14,0.00
2012-7-31,102,85,71,75,69,62,97,65,29,29.93,29.80,5,2,13,0.00
2012-8-1,100,86,74,72,65,56,85,54,26,29.89,29.76,7,2,13,0.00
2012-8-2,94,81,72,74,66,58,72,60,48,29.81,29.67,6,1,12,0.00
2012-8-4,97,84,75,76,74,70,92,72,46,29.94,29.76,9,2,28,0.04
2012-8-5,90,80,74,73,64,56,92,61,33,30.10,29.89,13,4,18,0.02
2012-8-6,93,80,68,68,60,54,79,53,31,30.12,29.95,5,2,9,0.00
2012-8-7,98,83,68,69,63,55,95,57,26,29.98,29.87,5,1,10,0.00
2012-8-8,91,81,69,68,64,61,95,59,40,29.99,29.82,11,3,20,0.32
2012-8-9,88,74,68,70,67,64,95,81,47,29.93,29.78,7,2,12,0.12
2012-8-10,78,72,66,66,60,56,87,68,47,29.96,29.81,11,6,18,0.00
2012-8-11,84,73,62,63,55,43,90,58,24,30.02,29.92,9,2,15,0.00
2012-8-12,84,72,64,66,60,57,91,69,44,29.99,29.83,3,0,12,0.01
2012-8-13,78,71,63,66,64,57,93,78,56,29.95,29.80,12,4,18,0.24
2012-8-14,80,72,64,64,62,59,93,73,51,30.00,29.90,8,3,12,0.00
2012-8-15,91,76,60,64,61,57,95,65,34,29.98,29.82,4,1,11,0.00
2012-8-16,94,78,70,73,67,61,90,70,49,29.95,29.72,17,3,26,0.00
2012-8-17,81,72,64,61,54,46,75,55,31,30.04,29.94,6,3,13,0.00
2012-8-18,81,71,59,60,53,42,93,57,26,30.00,29.86,6,1,11,0.00
2012-8-19,82,73,63,60,55,39,88,58,22,29.94,29.87,8,2,16,0.00
2012-8-20,84,71,59,61,55,45,89,62,27,29.98,29.90,12,3,21,0.00
2012-8-21,88,74,61,61,57,52,91,60,31,30.02,29.93,7,2,14,0.00
2012-8-22,94,78,64,61,57,52,80,54,26,30.04,29.95,4,1,10,0.00
2012-8-23,97,80,66,61,57,50,73,49,21,30.04,29.92,4,1,12,0.00
2012-8-24,92,80,68,63,59,54,77,52,29,30.01,29.90,7,1,16,0.00
2012-8-25,90,78,67,71,66,61,90,69,42,29.99,29.90,5,1,15,0.00
2012-8-26,88,76,72,74,71,68,97,86,57,29.98,29.90,8,1,17,0.48
2012-8-27,90,79,72,73,69,60,97,74,40,30.08,29.94,9,3,16,0.03
2012-8-28,92,79,66,73,65,61,95,65,37,30.10,29.93,6,2,14,0.00
2012-8-29,90,79,67,67,64,59,87,62,38,30.04,29.90,5,1,11,0.00
2012-8-30,94,81,69,66,64,58,86,59,31,29.99,29.88,4,1,11,0.00
2012-8-31,78,75,73,76,72,65,98,90,67,30.01,29.83,5,2,13,2.32
2012-9-1,78,75,74,75,73,72,98,94,85,29.83,29.71,5,1,11,0.44
2012-9-2,83,76,74,75,73,72,97,91,75,29.81,29.72,12,6,19,0.38
2012-9-3,91,79,74,76,73,71,95,82,54,29.88,29.79,6,3,13,0.00
2012-9-4,92,80,71,74,71,66,97,78,45,29.89,29.78,5,1,9,0.00
2012-9-5,85,75,67,75,71,64,96,88,68,29.93,29.76,16,2,37,0.42
2012-9-6,89,77,67,75,70,63,98,82,55,29.93,29.83,9,1,30,0.00
2012-9-7,91,73,65,77,67,61,96,82,55,29.88,29.62,22,3,37,1.14
2012-9-8,74,67,60,61,54,49,90,65,45,30.01,29.88,13,8,20,0.00
2012-9-9,75,66,59,58,54,51,83,64,46,30.12,29.90,10,4,17,0.00
2012-9-10,81,67,56,57,55,51,97,69,37,30.20,30.06,3,1,10,0.00
2012-9-11,85,70,57,62,58,55,93,68,38,30.15,30.03,6,1,13,0.00
2012-9-12,86,72,61,63,60,57,92,67,39,30.15,30.05,7,2,19,0.00
2012-9-13,85,69,60,67,60,55,90,75,41,30.29,30.11,13,3,21,0.00
2012-9-14,70,62,57,58,55,53,94,79,57,30.34,30.26,7,3,14,0.11
2012-9-15,70,64,58,58,54,50,88,71,52,30.29,30.12,3,0,9,0.00
2012-9-16,74,66,60,66,60,55,96,83,69,30.12,29.96,3,0,7,0.00
2012-9-17,76,67,61,68,65,57,98,92,76,29.96,29.75,10,2,20,0.13
2012-9-18,67,59,51,57,47,38,94,69,37,30.07,29.85,17,6,24,0.00
2012-9-19,77,62,47,53,49,43,97,67,37,30.12,29.91,7,2,17,0.00
2012-9-20,76,65,56,58,50,35,92,62,24,29.98,29.89,10,3,18,0.04
2012-9-21,83,67,52,63,54,47,93,66,34,29.98,29.65,12,3,24,0.00
2012-9-22,65,59,53,53,44,31,95,60,31,30.22,29.87,16,5,23,0.00
2012-9-23,67,55,44,50,42,34,94,65,30,30.32,30.21,7,2,15,0.00
2012-9-24,74,60,44,48,45,39,97,64,32,30.24,29.94,4,1,14,0.00
2012-9-25,80,67,58,69,61,47,97,81,60,29.95,29.76,12,2,27,2.46
2012-9-26,74,68,64,68,65,63,98,91,75,30.05,29.87,6,2,21,0.28
2012-9-27,70,65,62,65,62,57,98,90,73,30.14,30.04,6,2,10,0.00
2012-9-28,71,63,57,57,52,46,89,70,42,30.17,30.07,6,2,12,0.01
2012-9-29,76,62,52,59,54,49,95,76,40,30.13,29.97,4,1,8,0.00
2012-9-30,74,63,53,59,53,48,95,72,43,29.97,29.82,4,1,9,0.00
2012-10-1,66,60,56,52,49,46,77,66,51,29.84,29.75,8,3,14,0.00
2012-10-2,71,62,53,57,51,47,85,69,48,29.87,29.77,8,4,16,0.00
2012-10-3,74,65,58,61,56,52,92,75,48,30.03,29.86,5,1,12,0.01
2012-10-4,79,65,54,62,56,47,93,73,50,30.19,30.02,15,3,21,0.00
2012-10-5,54,47,42,47,43,38,94,85,74,30.25,30.15,10,5,16,0.81
2012-10-6,49,44,38,38,35,31,92,71,51,30.26,30.20,10,5,16,0.00
2012-10-7,54,46,40,40,34,26,89,65,36,30.28,30.16,9,4,17,0.00
2012-10-8,61,48,35,40,36,33,96,68,36,30.21,30.04,6,1,15,0.00
2012-10-9,69,55,42,48,43,38,89,67,43,30.06,29.88,15,3,26,0.00
2012-10-10,58,49,42,44,37,28,91,65,35,30.28,30.04,12,4,23,0.02
2012-10-11,66,53,41,52,41,34,90,64,42,30.24,30.10,6,1,15,0.00
2012-10-12,63,56,48,53,47,38,91,73,57,30.37,30.18,7,3,15,0.00
2012-10-13,78,65,51,66,59,48,95,84,63,30.21,29.75,7,1,17,0.05
2012-10-14,72,64,55,66,59,49,97,82,61,29.92,29.59,14,6,28,0.67
2012-10-15,72,58,49,54,48,44,89,72,41,30.01,29.91,6,2,13,0.00
2012-10-16,82,65,49,57,50,47,91,64,32,29.93,29.57,7,2,18,0.00
2012-10-17,67,62,54,61,55,49,95,79,52,29.61,29.33,20,3,39,0.26
2012-10-18,60,54,49,51,40,32,90,60,37,29.59,29.54,11,5,30,0.01
2012-10-19,53,50,46,46,45,43,94,82,73,29.78,29.52,11,6,23,0.04
2012-10-20,66,54,49,49,46,45,89,77,52,29.91,29.77,5,2,13,0.00
2012-10-21,78,62,48,63,54,46,93,77,53,29.94,29.84,3,1,8,0.00
2012-10-22,73,68,65,66,63,60,92,86,74,29.92,29.86,4,1,11,0.07
2012-10-23,74,68,63,68,64,61,95,86,77,29.94,29.80,3,1,8,0.10
2012-10-24,85,71,61,68,63,58,92,77,54,29.94,29.81,5,1,15,0.00
2012-10-25,82,63,46,65,56,38,93,80,56,30.16,29.72,21,6,32,0.44
2012-10-26,50,44,40,39,33,30,79,65,50,30.36,30.15,16,8,29,0.00
2012-10-27,50,43,36,34,32,30,79,65,48,30.34,30.23,9,5,18,0.00
2012-10-28,51,44,37,38,33,30,78,66,50,30.28,30.22,9,5,16,0.00
2012-10-29,55,46,39,36,31,22,78,57,28,30.34,30.12,10,4,15,0.00
2012-10-30,57,47,38,35,31,25,71,55,36,30.13,29.87,18,7,28,0.00
2012-10-31,56,46,38,33,27,16,77,51,22,29.98,29.91,14,6,21,0.00
2012-11-1,63,49,37,45,35,26,87,58,42,30.01,29.85,7,1,16,0.00
2012-11-2,55,48,42,42,35,33,76,61,44,30.08,29.89,10,3,19,0.00
2012-11-3,51,46,40,41,38,35,88,73,63,30.20,30.00,8,4,15,0.00
2012-11-4,50,42,33,38,36,32,96,79,57,30.27,30.15,4,1,9,0.00
2012-11-5,43,42,41,41,40,37,95,90,79,30.16,30.07,6,2,10,0.12
2012-11-6,47,44,40,43,41,38,94,90,85,30.09,29.93,7,1,12,0.02
2012-11-7,49,46,40,42,39,36,87,77,65,30.18,29.93,10,4,17,0.00
2012-11-8,57,45,32,42,38,30,97,79,52,30.23,30.07,3,1,11,0.01
2012-11-9,73,57,41,55,48,38,91,74,51,30.07,29.88,5,2,15,0.00
2012-11-10,83,66,54,55,50,40,78,59,22,29.97,29.84,9,2,19,0.00
2012-11-11,70,58,38,58,51,35,95,80,64,30.11,29.74,18,5,26,1.02
2012-11-12,45,38,30,35,25,21,89,62,39,30.44,30.09,18,7,29,0.00
2012-11-13,48,39,30,31,28,23,88,66,40,30.54,30.43,4,1,8,0.00
2012-11-14,50,40,33,33,30,27,85,71,43,30.50,30.36,4,1,9,0.00
2012-11-15,54,41,32,38,32,29,91,73,43,30.40,30.32,3,0,7,0.00
2012-11-16,59,45,35,39,36,33,95,74,41,30.45,30.38,3,0,6,0.00
2012-11-17,58,45,35,39,35,30,91,71,35,30.51,30.38,5,1,9,0.00
2012-11-18,62,47,36,40,36,28,93,69,29,30.39,30.26,3,1,8,0.00
2012-11-19,58,49,42,46,41,36,85,73,57,30.28,30.11,2,0,6,0.00
2012-11-20,60,50,42,50,45,40,97,84,67,30.20,30.07,7,2,12,0.00
2012-11-21,54,48,41,52,46,41,98,95,91,30.28,30.14,4,1,7,0.01
2012-11-22,70,55,41,53,47,40,98,76,43,30.14,29.89,17,3,26,0.05
2012-11-23,53,41,31,41,28,19,77,61,45,30.36,30.09,21,12,29,0.00
2012-11-24,38,30,24,26,21,18,81,70,51,30.37,30.03,9,3,13,0.00
2012-11-25,56,43,31,39,30,26,83,60,39,30.07,29.91,8,2,13,0.00
2012-11-26,43,38,31,31,28,21,78,68,54,30.40,30.06,14,6,22,0.00
2012-11-27,39,31,24,27,21,17,84,67,47,30.48,30.32,7,2,11,0.00
2012-11-28,51,38,27,31,28,24,92,70,44,30.45,30.30,4,0,7,0.00
2012-11-29,61,44,31,38,32,28,90,65,39,30.30,30.06,3,1,12,0.00
2012-11-30,66,52,41,46,39,32,81,64,47,30.11,30.03,6,1,13,0.00
2012-12-1,70,57,44,57,50,40,96,78,61,30.10,29.90,4,2,18,0.00
2012-12-2,73,63,58,60,56,53,94,79,61,30.01,29.91,6,1,17,0.00
2012-12-3,76,66,58,63,58,56,95,79,55,29.98,29.81,8,2,22,0.00
2012-12-4,63,52,42,58,45,36,95,79,45,30.29,29.89,12,3,17,0.57
2012-12-5,53,46,41,42,38,33,96,75,58,30.38,30.18,7,2,12,0.00
2012-12-6,52,42,37,42,37,34,91,84,68,30.18,29.94,4,2,8,0.00
2012-12-7,50,48,46,49,46,43,97,94,88,29.93,29.81,7,2,11,0.09
2012-12-8,48,44,43,47,42,40,97,92,86,30.00,29.85,13,4,17,0.15
2012-12-9,49,45,35,48,42,30,98,92,77,29.94,29.77,16,5,27,0.49
2012-12-10,35,29,26,30,23,21,83,78,72,30.08,29.88,17,8,26,0.00
2012-12-11,42,31,22,30,24,20,91,75,45,30.23,30.08,6,2,11,0.00
2012-12-12,51,36,27,34,28,22,93,74,34,30.34,30.23,3,1,6,0.00
2012-12-13,56,40,29,36,29,26,89,66,35,30.31,30.16,3,1,10,0.00
2012-12-14,55,43,33,43,34,28,89,72,55,30.22,29.95,3,1,6,0.04
2012-12-15,64,52,43,51,46,40,95,82,58,29.95,29.56,7,2,18,0.47
2012-12-16,50,46,41,45,42,37,92,86,74,29.75,29.65,6,2,11,0.00
2012-12-17,41,39,37,38,37,34,94,90,83,29.80,29.68,12,4,16,0.01
2012-12-18,60,44,33,42,36,32,96,74,44,29.92,29.64,10,3,17,0.01
2012-12-19,48,40,34,46,36,31,95,88,76,30.01,29.51,7,3,13,0.10
2012-12-20,55,39,29,53,36,22,97,87,71,29.90,29.21,27,12,48,0.55
2012-12-21,36,29,24,23,19,17,77,67,47,30.31,29.89,19,11,31,0.55
2012-12-22,44,32,21,31,24,18,91,72,50,30.31,29.95,4,1,8,0.00
2012-12-23,45,37,32,34,31,26,93,77,62,29.97,29.87,6,2,14,0.00
2012-12-24,35,29,23,32,25,16,93,86,75,30.17,29.82,15,8,21,0.00
2012-12-25,32,28,23,26,23,16,87,82,75,30.30,30.05,15,8,24,0.00
2012-12-26,33,30,28,26,24,23,85,80,75,30.19,29.97,16,11,27,0.00
2012-12-27,34,30,27,27,25,23,85,80,69,30.23,30.08,7,2,12,0.00
2012-12-28,35,33,31,31,29,26,90,86,81,30.08,29.91,7,1,9,0.00
2012-12-29,33,29,22,30,23,19,90,80,67,30.35,29.92,19,9,29,0.00
2012-12-30,43,31,21,29,24,18,91,78,47,30.44,30.20,5,0,12,0.00
2012-12-31,38,34,29,33,30,25,97,85,61,30.23,30.09,10,1,18,0.17
2013-1-1,28,23,17,25,18,13,87,78,59,30.30,30.13,10,5,15,0.00